sensor_id;sensor_type;location;lat;lon;timestamp;pressure;altitude;pressure_sealevel;temperature;humidity
9746;BME280;4912;50.836;12.958;2023-04-26T00:00:29;97666.28;;;7.85;64.27
9746;BME280;4912;50.836;12.958;2023-04-26T00:03:00;97667.47;;;7.83;64.27
9746;BME280;4912;50.836;12.958;2023-04-26T00:05:31;97667.81;;;7.86;64.51
9746;BME280;4912;50.836;12.958;2023-04-26T00:08:03;97667.44;;;7.65;65.21
9746;BME280;4912;50.836;12.958;2023-04-26T00:10:37;97667.53;;;7.62;65.69
9746;BME280;4912;50.836;12.958;2023-04-26T00:13:10;97670.56;;;7.55;66.40
9746;BME280;4912;50.836;12.958;2023-04-26T00:15:41;97670.44;;;7.36;67.33
9746;BME280;4912;50.836;12.958;2023-04-26T00:18:11;97673.72;;;7.44;67.31
9746;BME280;4912;50.836;12.958;2023-04-26T00:20:42;97671.63;;;7.26;68.42
9746;BME280;4912;50.836;12.958;2023-04-26T00:23:16;97672.13;;;7.34;68.40
9746;BME280;4912;50.836;12.958;2023-04-26T00:25:46;97670.78;;;7.38;68.17
9746;BME280;4912;50.836;12.958;2023-04-26T00:28:20;97674.31;;;7.39;68.24
9746;BME280;4912;50.836;12.958;2023-04-26T00:30:50;97677.66;;;7.34;68.87
9746;BME280;4912;50.836;12.958;2023-04-26T00:33:24;97678.66;;;7.27;69.07
9746;BME280;4912;50.836;12.958;2023-04-26T00:35:55;97680.66;;;7.27;69.25
9746;BME280;4912;50.836;12.958;2023-04-26T00:38:29;97673.66;;;7.13;70.00
9746;BME280;4912;50.836;12.958;2023-04-26T00:40:59;97680.22;;;7.28;69.77
9746;BME280;4912;50.836;12.958;2023-04-26T00:43:32;97681.97;;;7.44;69.11
9746;BME280;4912;50.836;12.958;2023-04-26T00:46:03;97677.81;;;7.39;69.09
9746;BME280;4912;50.836;12.958;2023-04-26T00:48:35;97681.75;;;7.29;69.30
9746;BME280;4912;50.836;12.958;2023-04-26T00:51:06;97676.72;;;7.37;68.65
9746;BME280;4912;50.836;12.958;2023-04-26T00:53:37;97682.41;;;7.43;68.34
9746;BME280;4912;50.836;12.958;2023-04-26T00:56:08;97676.81;;;7.46;68.53
9746;BME280;4912;50.836;12.958;2023-04-26T00:58:42;97679.09;;;7.48;68.01
9746;BME280;4912;50.836;12.958;2023-04-26T01:01:13;97687.09;;;7.55;67.74
9746;BME280;4912;50.836;12.958;2023-04-26T01:03:46;97690.59;;;7.55;66.70
9746;BME280;4912;50.836;12.958;2023-04-26T01:06:17;97687.84;;;7.55;66.86
9746;BME280;4912;50.836;12.958;2023-04-26T01:08:49;97692.28;;;7.53;66.98
9746;BME280;4912;50.836;12.958;2023-04-26T01:11:22;97682.34;;;7.55;66.63
9746;BME280;4912;50.836;12.958;2023-04-26T01:13:55;97692.16;;;7.56;66.27
9746;BME280;4912;50.836;12.958;2023-04-26T01:16:27;97695.94;;;7.50;66.83
9746;BME280;4912;50.836;12.958;2023-04-26T01:19:00;97702.09;;;7.54;66.53
9746;BME280;4912;50.836;12.958;2023-04-26T01:21:38;97696.38;;;7.48;66.40
9746;BME280;4912;50.836;12.958;2023-04-26T01:24:12;97696.25;;;7.52;66.27
9746;BME280;4912;50.836;12.958;2023-04-26T01:26:43;97699.88;;;7.49;66.09
9746;BME280;4912;50.836;12.958;2023-04-26T01:29:15;97706.13;;;7.40;65.92
9746;BME280;4912;50.836;12.958;2023-04-26T01:31:46;97697.69;;;7.34;66.18
9746;BME280;4912;50.836;12.958;2023-04-26T01:34:18;97703.19;;;7.34;66.10
9746;BME280;4912;50.836;12.958;2023-04-26T01:36:49;97698.75;;;7.37;66.04
9746;BME280;4912;50.836;12.958;2023-04-26T01:39:22;97705.41;;;7.27;65.88
9746;BME280;4912;50.836;12.958;2023-04-26T01:41:56;97708.59;;;7.25;66.31
9746;BME280;4912;50.836;12.958;2023-04-26T01:44:31;97710.59;;;7.25;66.06
9746;BME280;4912;50.836;12.958;2023-04-26T01:47:01;97703.75;;;7.08;66.24
9746;BME280;4912;50.836;12.958;2023-04-26T01:49:32;97706.06;;;7.09;66.49
9746;BME280;4912;50.836;12.958;2023-04-26T01:52:03;97705.16;;;7.12;66.46
9746;BME280;4912;50.836;12.958;2023-04-26T01:54:36;97709.44;;;7.13;66.29
9746;BME280;4912;50.836;12.958;2023-04-26T01:57:07;97711.44;;;7.13;67.10
9746;BME280;4912;50.836;12.958;2023-04-26T01:59:37;97714.06;;;7.16;66.58
9746;BME280;4912;50.836;12.958;2023-04-26T02:02:08;97708.28;;;7.02;66.32
9746;BME280;4912;50.836;12.958;2023-04-26T02:04:38;97709.38;;;7.04;66.56
9746;BME280;4912;50.836;12.958;2023-04-26T02:07:09;97711.69;;;7.06;66.71
9746;BME280;4912;50.836;12.958;2023-04-26T02:09:47;97702.47;;;6.99;66.50
9746;BME280;4912;50.836;12.958;2023-04-26T02:12:17;97700.78;;;7.02;66.54
9746;BME280;4912;50.836;12.958;2023-04-26T02:14:48;97700.03;;;7.02;66.77
9746;BME280;4912;50.836;12.958;2023-04-26T02:17:18;97705.84;;;7.04;66.87
9746;BME280;4912;50.836;12.958;2023-04-26T02:19:49;97704.97;;;7.07;67.09
9746;BME280;4912;50.836;12.958;2023-04-26T02:22:20;97709.56;;;7.10;66.62
9746;BME280;4912;50.836;12.958;2023-04-26T02:24:53;97707.44;;;7.14;66.56
9746;BME280;4912;50.836;12.958;2023-04-26T02:27:27;97716.94;;;7.13;66.82
9746;BME280;4912;50.836;12.958;2023-04-26T02:29:58;97708.94;;;7.06;66.31
9746;BME280;4912;50.836;12.958;2023-04-26T02:32:28;97710.47;;;7.07;66.61
9746;BME280;4912;50.836;12.958;2023-04-26T02:34:59;97717.50;;;7.08;66.69
9746;BME280;4912;50.836;12.958;2023-04-26T02:37:29;97712.75;;;7.08;67.17
9746;BME280;4912;50.836;12.958;2023-04-26T02:40:06;97709.00;;;7.15;66.34
9746;BME280;4912;50.836;12.958;2023-04-26T02:42:40;97713.09;;;7.10;66.08
9746;BME280;4912;50.836;12.958;2023-04-26T02:45:11;97704.50;;;7.08;66.12
9746;BME280;4912;50.836;12.958;2023-04-26T02:47:41;97695.81;;;7.10;66.73
9746;BME280;4912;50.836;12.958;2023-04-26T02:50:12;97701.44;;;7.06;66.37
9746;BME280;4912;50.836;12.958;2023-04-26T02:52:43;97699.47;;;7.07;66.34
9746;BME280;4912;50.836;12.958;2023-04-26T02:55:16;97710.47;;;7.07;66.19
9746;BME280;4912;50.836;12.958;2023-04-26T02:57:47;97709.13;;;7.11;66.42
9746;BME280;4912;50.836;12.958;2023-04-26T03:00:17;97709.25;;;7.08;66.08
9746;BME280;4912;50.836;12.958;2023-04-26T03:02:49;97713.09;;;7.10;66.16
9746;BME280;4912;50.836;12.958;2023-04-26T03:05:20;97704.84;;;7.10;66.48
9746;BME280;4912;50.836;12.958;2023-04-26T03:07:51;97709.13;;;7.11;66.30
9746;BME280;4912;50.836;12.958;2023-04-26T03:10:24;97709.72;;;7.06;66.50
9746;BME280;4912;50.836;12.958;2023-04-26T03:12:55;97708.94;;;7.06;66.38
9746;BME280;4912;50.836;12.958;2023-04-26T03:15:25;97706.19;;;7.06;66.39
9746;BME280;4912;50.836;12.958;2023-04-26T03:17:56;97698.69;;;7.06;65.99
9746;BME280;4912;50.836;12.958;2023-04-26T03:20:27;97700.50;;;7.00;65.75
9746;BME280;4912;50.836;12.958;2023-04-26T03:22:58;97706.22;;;6.93;66.24
9746;BME280;4912;50.836;12.958;2023-04-26T03:25:31;97706.09;;;6.96;66.14
9746;BME280;4912;50.836;12.958;2023-04-26T03:28:03;97706.44;;;6.98;65.79
9746;BME280;4912;50.836;12.958;2023-04-26T03:30:34;97706.66;;;6.91;65.88
9746;BME280;4912;50.836;12.958;2023-04-26T03:33:05;97709.75;;;6.93;66.24
9746;BME280;4912;50.836;12.958;2023-04-26T03:35:35;97706.34;;;6.89;66.25
9746;BME280;4912;50.836;12.958;2023-04-26T03:38:06;97709.84;;;6.90;66.18
9746;BME280;4912;50.836;12.958;2023-04-26T03:40:39;97702.06;;;6.88;65.78
9746;BME280;4912;50.836;12.958;2023-04-26T03:43:10;97702.94;;;6.85;66.10
9746;BME280;4912;50.836;12.958;2023-04-26T03:45:40;97702.94;;;6.85;65.97
9746;BME280;4912;50.836;12.958;2023-04-26T03:48:11;97702.88;;;6.76;65.98
9746;BME280;4912;50.836;12.958;2023-04-26T03:50:41;97709.06;;;6.68;66.20
9746;BME280;4912;50.836;12.958;2023-04-26T03:53:13;97710.06;;;6.61;66.73
9746;BME280;4912;50.836;12.958;2023-04-26T03:55:46;97712.09;;;6.48;66.70
9746;BME280;4912;50.836;12.958;2023-04-26T03:58:17;97703.06;;;6.47;67.25
9746;BME280;4912;50.836;12.958;2023-04-26T04:00:47;97717.88;;;6.50;67.06
9746;BME280;4912;50.836;12.958;2023-04-26T04:03:18;97714.28;;;6.40;67.64
9746;BME280;4912;50.836;12.958;2023-04-26T04:05:50;97715.94;;;6.38;67.66
9746;BME280;4912;50.836;12.958;2023-04-26T04:08:21;97719.66;;;6.31;67.99
9746;BME280;4912;50.836;12.958;2023-04-26T04:10:54;97716.28;;;6.40;67.85
9746;BME280;4912;50.836;12.958;2023-04-26T04:13:25;97714.84;;;6.35;67.58
9746;BME280;4912;50.836;12.958;2023-04-26T04:15:56;97719.56;;;6.35;67.45
9746;BME280;4912;50.836;12.958;2023-04-26T04:18:27;97718.91;;;6.31;67.81
9746;BME280;4912;50.836;12.958;2023-04-26T04:20:58;97720.78;;;6.34;67.69
9746;BME280;4912;50.836;12.958;2023-04-26T04:23:28;97719.66;;;6.31;67.98
9746;BME280;4912;50.836;12.958;2023-04-26T04:26:04;97720.22;;;6.26;68.23
9746;BME280;4912;50.836;12.958;2023-04-26T04:28:35;97722.97;;;6.26;68.71
9746;BME280;4912;50.836;12.958;2023-04-26T04:31:05;97725.41;;;6.24;69.19
9746;BME280;4912;50.836;12.958;2023-04-26T04:33:37;97738.25;;;6.27;68.99
9746;BME280;4912;50.836;12.958;2023-04-26T04:36:08;97746.38;;;6.31;69.08
9746;BME280;4912;50.836;12.958;2023-04-26T04:38:39;97733.41;;;6.31;69.53
9746;BME280;4912;50.836;12.958;2023-04-26T04:41:13;97741.44;;;6.26;69.72
9746;BME280;4912;50.836;12.958;2023-04-26T04:43:44;97741.13;;;6.24;70.20
9746;BME280;4912;50.836;12.958;2023-04-26T04:46:14;97747.50;;;6.21;70.40
9746;BME280;4912;50.836;12.958;2023-04-26T04:48:45;97744.88;;;6.17;70.50
9746;BME280;4912;50.836;12.958;2023-04-26T04:51:16;97750.22;;;6.21;70.73
9746;BME280;4912;50.836;12.958;2023-04-26T04:53:47;97750.78;;;6.15;70.58
9746;BME280;4912;50.836;12.958;2023-04-26T04:56:20;97759.59;;;6.10;70.84
9746;BME280;4912;50.836;12.958;2023-04-26T04:58:52;97765.06;;;6.10;70.93
9746;BME280;4912;50.836;12.958;2023-04-26T05:01:22;97757.41;;;6.18;71.29
9746;BME280;4912;50.836;12.958;2023-04-26T05:03:56;97749.38;;;6.24;70.97
9746;BME280;4912;50.836;12.958;2023-04-26T05:06:27;97765.28;;;6.16;70.41
9746;BME280;4912;50.836;12.958;2023-04-26T05:08:58;97758.81;;;6.10;70.02
9746;BME280;4912;50.836;12.958;2023-04-26T05:11:34;97765.72;;;6.14;69.57
9746;BME280;4912;50.836;12.958;2023-04-26T05:14:06;97768.91;;;6.26;69.45
9746;BME280;4912;50.836;12.958;2023-04-26T05:16:37;97774.09;;;6.24;68.42
9746;BME280;4912;50.836;12.958;2023-04-26T05:19:07;97774.31;;;6.29;68.24
9746;BME280;4912;50.836;12.958;2023-04-26T05:21:39;97777.06;;;6.29;69.05
9746;BME280;4912;50.836;12.958;2023-04-26T05:24:10;97769.34;;;6.37;69.86
9746;BME280;4912;50.836;12.958;2023-04-26T05:26:43;97775.59;;;6.50;69.03
9746;BME280;4912;50.836;12.958;2023-04-26T05:29:32;97774.31;;;6.42;66.97
9746;BME280;4912;50.836;12.958;2023-04-26T05:32:13;97792.00;;;6.53;67.71
9746;BME280;4912;50.836;12.958;2023-04-26T05:35:10;97792.09;;;6.50;67.12
9746;BME280;4912;50.836;12.958;2023-04-26T05:37:40;97785.19;;;6.58;67.04
9746;BME280;4912;50.836;12.958;2023-04-26T05:40:13;97785.81;;;6.62;67.07
9746;BME280;4912;50.836;12.958;2023-04-26T05:42:46;97795.81;;;6.69;66.72
9746;BME280;4912;50.836;12.958;2023-04-26T05:45:17;97802.06;;;6.82;66.46
9746;BME280;4912;50.836;12.958;2023-04-26T05:47:49;97799.63;;;6.96;65.24
9746;BME280;4912;50.836;12.958;2023-04-26T05:50:20;97805.31;;;7.02;64.42
9746;BME280;4912;50.836;12.958;2023-04-26T05:52:50;97804.66;;;7.11;63.55
9746;BME280;4912;50.836;12.958;2023-04-26T05:55:20;97803.50;;;7.21;63.44
9746;BME280;4912;50.836;12.958;2023-04-26T05:57:54;97809.44;;;7.19;61.94
9746;BME280;4912;50.836;12.958;2023-04-26T06:00:24;97802.69;;;7.33;62.79
9746;BME280;4912;50.836;12.958;2023-04-26T06:02:55;97809.56;;;7.50;61.72
9746;BME280;4912;50.836;12.958;2023-04-26T06:05:26;97811.06;;;7.64;61.32
9746;BME280;4912;50.836;12.958;2023-04-26T06:07:57;97807.56;;;7.72;61.04
9746;BME280;4912;50.836;12.958;2023-04-26T06:10:28;97811.25;;;7.69;59.87
9746;BME280;4912;50.836;12.958;2023-04-26T06:13:01;97811.06;;;7.64;60.16
9746;BME280;4912;50.836;12.958;2023-04-26T06:15:35;97806.75;;;7.63;60.52
9746;BME280;4912;50.836;12.958;2023-04-26T06:18:05;97806.75;;;7.63;61.33
9746;BME280;4912;50.836;12.958;2023-04-26T06:20:36;97814.81;;;7.79;60.62
9746;BME280;4912;50.836;12.958;2023-04-26T06:23:06;97816.16;;;7.74;58.88
9746;BME280;4912;50.836;12.958;2023-04-26T06:25:37;97809.75;;;7.56;59.31
9746;BME280;4912;50.836;12.958;2023-04-26T06:28:15;97814.63;;;7.52;59.30
9746;BME280;4912;50.836;12.958;2023-04-26T06:30:46;97825.91;;;7.66;60.58
9746;BME280;4912;50.836;12.958;2023-04-26T06:33:16;97819.22;;;7.98;59.12
9746;BME280;4912;50.836;12.958;2023-04-26T06:35:47;97822.28;;;8.22;58.04
9746;BME280;4912;50.836;12.958;2023-04-26T06:38:18;97813.69;;;8.20;57.93
9746;BME280;4912;50.836;12.958;2023-04-26T06:40:50;97820.25;;;8.44;56.89
9746;BME280;4912;50.836;12.958;2023-04-26T06:43:23;97816.34;;;8.63;55.92
9746;BME280;4912;50.836;12.958;2023-04-26T06:45:58;97813.06;;;8.87;54.94
9746;BME280;4912;50.836;12.958;2023-04-26T06:48:29;97822.63;;;9.31;54.72
9746;BME280;4912;50.836;12.958;2023-04-26T06:51:04;97813.28;;;9.74;53.01
9746;BME280;4912;50.836;12.958;2023-04-26T06:53:35;97826.78;;;9.36;51.70
9746;BME280;4912;50.836;12.958;2023-04-26T06:56:06;97827.09;;;9.38;51.98
9746;BME280;4912;50.836;12.958;2023-04-26T06:58:56;97824.94;;;9.69;51.03
9746;BME280;4912;50.836;12.958;2023-04-26T07:01:28;97824.78;;;9.55;50.99
9746;BME280;4912;50.836;12.958;2023-04-26T07:04:00;97821.72;;;9.62;50.97
9746;BME280;4912;50.836;12.958;2023-04-26T07:06:34;97827.84;;;9.75;50.71
9746;BME280;4912;50.836;12.958;2023-04-26T07:09:04;97817.56;;;9.66;49.69
9746;BME280;4912;50.836;12.958;2023-04-26T07:11:35;97821.09;;;9.67;50.03
9746;BME280;4912;50.836;12.958;2023-04-26T07:14:09;97818.97;;;9.62;50.38
9746;BME280;4912;50.836;12.958;2023-04-26T07:16:40;97814.06;;;9.48;50.75
9746;BME280;4912;50.836;12.958;2023-04-26T07:19:12;97826.94;;;9.51;50.74
9746;BME280;4912;50.836;12.958;2023-04-26T07:21:43;97826.63;;;9.30;50.36
9746;BME280;4912;50.836;12.958;2023-04-26T07:24:13;97827.75;;;8.84;49.74
9746;BME280;4912;50.836;12.958;2023-04-26T07:26:44;97831.91;;;8.88;51.34
9746;BME280;4912;50.836;12.958;2023-04-26T07:29:17;97825.03;;;9.02;51.24
9746;BME280;4912;50.836;12.958;2023-04-26T07:31:48;97825.41;;;9.77;50.61
9746;BME280;4912;50.836;12.958;2023-04-26T07:34:18;97831.56;;;10.50;48.58
9746;BME280;4912;50.836;12.958;2023-04-26T07:36:49;97822.13;;;10.24;49.20
9746;BME280;4912;50.836;12.958;2023-04-26T07:39:19;97831.81;;;10.10;48.71
9746;BME280;4912;50.836;12.958;2023-04-26T07:41:50;97833.00;;;10.37;48.66
9746;BME280;4912;50.836;12.958;2023-04-26T07:44:23;97830.69;;;10.35;49.72
9746;BME280;4912;50.836;12.958;2023-04-26T07:46:54;97831.16;;;10.34;50.15
9746;BME280;4912;50.836;12.958;2023-04-26T07:49:24;97827.66;;;10.06;48.98
9746;BME280;4912;50.836;12.958;2023-04-26T07:51:55;97835.84;;;9.82;46.21
9746;BME280;4912;50.836;12.958;2023-04-26T07:54:28;97830.19;;;10.46;44.79
9746;BME280;4912;50.836;12.958;2023-04-26T07:56:59;97832.00;;;10.58;43.99
9746;BME280;4912;50.836;12.958;2023-04-26T07:59:32;97828.13;;;10.22;44.28
9746;BME280;4912;50.836;12.958;2023-04-26T08:02:02;97827.25;;;9.89;44.73
9746;BME280;4912;50.836;12.958;2023-04-26T08:04:33;97831.22;;;9.79;45.25
9746;BME280;4912;50.836;12.958;2023-04-26T08:07:04;97830.31;;;9.73;45.06
9746;BME280;4912;50.836;12.958;2023-04-26T08:09:34;97836.75;;;9.79;44.50
9746;BME280;4912;50.836;12.958;2023-04-26T08:12:06;97840.53;;;10.36;44.60
9746;BME280;4912;50.836;12.958;2023-04-26T08:14:40;97834.22;;;10.36;45.00
9746;BME280;4912;50.836;12.958;2023-04-26T08:17:10;97843.06;;;10.91;44.21
9746;BME280;4912;50.836;12.958;2023-04-26T08:19:41;97841.94;;;11.69;42.26
9746;BME280;4912;50.836;12.958;2023-04-26T08:22:11;97840.38;;;12.50;39.11
9746;BME280;4912;50.836;12.958;2023-04-26T08:24:46;97837.00;;;13.66;37.09
9746;BME280;4912;50.836;12.958;2023-04-26T08:27:17;97826.22;;;14.82;34.12
9746;BME280;4912;50.836;12.958;2023-04-26T08:29:53;97828.03;;;14.54;34.26
9746;BME280;4912;50.836;12.958;2023-04-26T08:32:24;97818.03;;;15.58;34.30
9746;BME280;4912;50.836;12.958;2023-04-26T08:34:55;97824.53;;;14.59;34.37
9746;BME280;4912;50.836;12.958;2023-04-26T08:37:25;97837.41;;;14.88;34.82
9746;BME280;4912;50.836;12.958;2023-04-26T08:39:56;97823.47;;;17.29;30.96
9746;BME280;4912;50.836;12.958;2023-04-26T08:42:27;97824.75;;;16.05;31.45
9746;BME280;4912;50.836;12.958;2023-04-26T08:45:02;97837.38;;;14.25;33.92
9746;BME280;4912;50.836;12.958;2023-04-26T08:47:38;97838.31;;;12.95;35.46
9746;BME280;4912;50.836;12.958;2023-04-26T08:50:13;97848.94;;;12.17;37.52
9746;BME280;4912;50.836;12.958;2023-04-26T08:52:47;97837.25;;;11.60;38.97
9746;BME280;4912;50.836;12.958;2023-04-26T08:55:19;97855.22;;;11.17;39.69
9746;BME280;4912;50.836;12.958;2023-04-26T08:57:49;97851.28;;;10.76;41.23
9746;BME280;4912;50.836;12.958;2023-04-26T09:00:23;97851.66;;;10.60;41.47
9746;BME280;4912;50.836;12.958;2023-04-26T09:02:54;97857.22;;;10.60;41.22
9746;BME280;4912;50.836;12.958;2023-04-26T09:05:25;97853.69;;;11.64;41.07
9746;BME280;4912;50.836;12.958;2023-04-26T09:07:56;97852.13;;;14.62;36.03
9746;BME280;4912;50.836;12.958;2023-04-26T09:10:31;97842.47;;;13.80;36.80
9746;BME280;4912;50.836;12.958;2023-04-26T09:13:01;97838.31;;;12.95;36.75
9746;BME280;4912;50.836;12.958;2023-04-26T09:15:35;97840.59;;;12.17;37.14
9746;BME280;4912;50.836;12.958;2023-04-26T09:18:16;97848.50;;;11.57;38.16
9746;BME280;4912;50.836;12.958;2023-04-26T09:21:02;97848.81;;;11.35;39.18
9746;BME280;4912;50.836;12.958;2023-04-26T09:23:34;97858.81;;;11.08;40.26
9746;BME280;4912;50.836;12.958;2023-04-26T09:26:17;97852.69;;;11.04;40.30
9746;BME280;4912;50.836;12.958;2023-04-26T09:28:48;97857.34;;;10.98;40.09
9746;BME280;4912;50.836;12.958;2023-04-26T09:31:36;97857.09;;;10.87;39.39
9746;BME280;4912;50.836;12.958;2023-04-26T09:34:12;97850.69;;;12.79;37.24
9746;BME280;4912;50.836;12.958;2023-04-26T09:36:47;97842.16;;;14.82;34.06
9746;BME280;4912;50.836;12.958;2023-04-26T09:39:30;97840.03;;;15.08;32.76
9746;BME280;4912;50.836;12.958;2023-04-26T09:42:02;97849.34;;;13.85;32.56
9746;BME280;4912;50.836;12.958;2023-04-26T09:44:34;97857.78;;;13.30;34.41
9746;BME280;4912;50.836;12.958;2023-04-26T09:47:08;97850.44;;;13.93;33.16
9746;BME280;4912;50.836;12.958;2023-04-26T09:49:45;97851.84;;;13.83;31.03
9746;BME280;4912;50.836;12.958;2023-04-26T09:52:17;97840.63;;;15.66;28.56
9746;BME280;4912;50.836;12.958;2023-04-26T09:54:50;97830.66;;;16.91;27.92
9746;BME280;4912;50.836;12.958;2023-04-26T09:57:21;97835.03;;;17.72;26.69
9746;BME280;4912;50.836;12.958;2023-04-26T09:59:52;97830.16;;;16.53;27.61
9746;BME280;4912;50.836;12.958;2023-04-26T10:02:26;97827.28;;;14.90;29.44
9746;BME280;4912;50.836;12.958;2023-04-26T10:04:57;97830.53;;;13.54;29.08
9746;BME280;4912;50.836;12.958;2023-04-26T10:07:29;97845.03;;;12.88;29.39
9746;BME280;4912;50.836;12.958;2023-04-26T10:09:59;97850.44;;;12.62;30.76
9746;BME280;4912;50.836;12.958;2023-04-26T10:12:30;97845.47;;;14.49;29.28
9746;BME280;4912;50.836;12.958;2023-04-26T10:15:02;97840.91;;;15.20;28.36
9746;BME280;4912;50.836;12.958;2023-04-26T10:17:37;97838.88;;;14.52;30.04
9746;BME280;4912;50.836;12.958;2023-04-26T10:20:10;97837.84;;;13.72;30.16
9746;BME280;4912;50.836;12.958;2023-04-26T10:22:45;97838.50;;;13.26;31.37
9746;BME280;4912;50.836;12.958;2023-04-26T10:25:33;97850.13;;;12.75;32.04
9746;BME280;4912;50.836;12.958;2023-04-26T10:28:05;97841.38;;;12.47;32.49
9746;BME280;4912;50.836;12.958;2023-04-26T10:30:53;97846.13;;;12.61;33.06
9746;BME280;4912;50.836;12.958;2023-04-26T10:33:28;97838.25;;;13.24;33.21
9746;BME280;4912;50.836;12.958;2023-04-26T10:36:06;97839.84;;;13.31;32.88
9746;BME280;4912;50.836;12.958;2023-04-26T10:38:39;97838.38;;;13.15;32.55
9746;BME280;4912;50.836;12.958;2023-04-26T10:41:26;97839.94;;;12.87;32.16
9746;BME280;4912;50.836;12.958;2023-04-26T10:43:59;97845.84;;;12.59;31.38
9746;BME280;4912;50.836;12.958;2023-04-26T10:46:49;97841.91;;;12.66;32.00
9746;BME280;4912;50.836;12.958;2023-04-26T10:49:23;97841.50;;;12.88;32.03
9746;BME280;4912;50.836;12.958;2023-04-26T10:52:09;97846.91;;;12.97;32.49
9746;BME280;4912;50.836;12.958;2023-04-26T10:54:50;97844.38;;;12.79;32.24
9746;BME280;4912;50.836;12.958;2023-04-26T10:57:22;97835.31;;;12.49;32.49
9746;BME280;4912;50.836;12.958;2023-04-26T11:03:05;97847.44;;;11.78;34.38
9746;BME280;4912;50.836;12.958;2023-04-26T11:05:49;97842.22;;;11.71;35.61
9746;BME280;4912;50.836;12.958;2023-04-26T11:08:26;97851.91;;;11.75;34.48
9746;BME280;4912;50.836;12.958;2023-04-26T11:11:04;97844.28;;;11.61;33.81
9746;BME280;4912;50.836;12.958;2023-04-26T11:13:39;97845.94;;;11.29;33.99
9746;BME280;4912;50.836;12.958;2023-04-26T11:16:11;97842.50;;;11.34;34.73
9746;BME280;4912;50.836;12.958;2023-04-26T11:18:43;97838.06;;;11.75;34.65
9746;BME280;4912;50.836;12.958;2023-04-26T11:21:20;97835.13;;;12.08;35.35
9746;BME280;4912;50.836;12.958;2023-04-26T11:23:54;97837.72;;;12.91;33.28
9746;BME280;4912;50.836;12.958;2023-04-26T11:26:31;97849.56;;;12.71;32.87
9746;BME280;4912;50.836;12.958;2023-04-26T11:29:03;97842.91;;;12.19;32.95
9746;BME280;4912;50.836;12.958;2023-04-26T11:31:39;97842.28;;;11.85;33.04
9746;BME280;4912;50.836;12.958;2023-04-26T11:34:10;97835.66;;;11.44;34.17
9746;BME280;4912;50.836;12.958;2023-04-26T11:36:43;97835.66;;;11.21;34.08
9746;BME280;4912;50.836;12.958;2023-04-26T11:39:14;97839.72;;;11.34;35.81
9746;BME280;4912;50.836;12.958;2023-04-26T11:41:45;97834.44;;;11.84;35.55
9746;BME280;4912;50.836;12.958;2023-04-26T11:44:19;97847.84;;;12.44;33.99
9746;BME280;4912;50.836;12.958;2023-04-26T11:46:49;97839.25;;;12.13;33.46
9746;BME280;4912;50.836;12.958;2023-04-26T11:49:20;97842.69;;;12.08;34.08
9746;BME280;4912;50.836;12.958;2023-04-26T11:51:53;97835.34;;;12.05;34.53
9746;BME280;4912;50.836;12.958;2023-04-26T11:54:28;97840.00;;;11.99;34.76
9746;BME280;4912;50.836;12.958;2023-04-26T11:56:59;97837.91;;;11.94;35.83
9746;BME280;4912;50.836;12.958;2023-04-26T11:59:29;97839.03;;;11.87;35.64
9746;BME280;4912;50.836;12.958;2023-04-26T12:02:04;97840.78;;;11.99;36.31
9746;BME280;4912;50.836;12.958;2023-04-26T12:04:36;97842.78;;;12.72;34.45
9746;BME280;4912;50.836;12.958;2023-04-26T12:07:10;97835.25;;;14.40;31.01
9746;BME280;4912;50.836;12.958;2023-04-26T12:09:41;97830.47;;;15.20;30.05
9746;BME280;4912;50.836;12.958;2023-04-26T12:12:12;97826.22;;;14.51;31.03
9746;BME280;4912;50.836;12.958;2023-04-26T12:14:42;97840.31;;;13.90;31.02
9746;BME280;4912;50.836;12.958;2023-04-26T12:17:13;97838.84;;;13.13;32.18
9746;BME280;4912;50.836;12.958;2023-04-26T12:19:48;97844.63;;;12.60;31.86
9746;BME280;4912;50.836;12.958;2023-04-26T12:22:22;97839.72;;;12.26;33.44
9746;BME280;4912;50.836;12.958;2023-04-26T12:25:03;97845.00;;;12.39;34.00
9746;BME280;4912;50.836;12.958;2023-04-26T12:27:34;97841.72;;;12.55;34.08
9746;BME280;4912;50.836;12.958;2023-04-26T12:30:07;97836.72;;;13.23;32.63
9746;BME280;4912;50.836;12.958;2023-04-26T12:32:39;97823.72;;;14.53;32.16
9746;BME280;4912;50.836;12.958;2023-04-26T12:35:09;97823.13;;;15.65;30.75
9746;BME280;4912;50.836;12.958;2023-04-26T12:37:42;97822.16;;;15.79;30.28
9746;BME280;4912;50.836;12.958;2023-04-26T12:40:14;97822.06;;;17.69;28.10
9746;BME280;4912;50.836;12.958;2023-04-26T12:42:46;97819.84;;;19.03;26.11
9746;BME280;4912;50.836;12.958;2023-04-26T12:45:18;97819.34;;;20.10;25.44
9746;BME280;4912;50.836;12.958;2023-04-26T12:47:48;97825.69;;;18.46;25.21
9746;BME280;4912;50.836;12.958;2023-04-26T12:50:19;97817.19;;;16.95;25.71
9746;BME280;4912;50.836;12.958;2023-04-26T12:52:52;97831.41;;;16.24;26.52
9746;BME280;4912;50.836;12.958;2023-04-26T12:55:23;97825.31;;;16.48;26.55
9746;BME280;4912;50.836;12.958;2023-04-26T12:57:58;97826.00;;;15.98;28.48
9746;BME280;4912;50.836;12.958;2023-04-26T13:00:28;97825.31;;;16.37;27.87
9746;BME280;4912;50.836;12.958;2023-04-26T13:02:59;97841.53;;;15.46;28.20
9746;BME280;4912;50.836;12.958;2023-04-26T13:05:30;97834.69;;;14.67;29.26
9746;BME280;4912;50.836;12.958;2023-04-26T13:08:03;97831.69;;;14.14;30.02
9746;BME280;4912;50.836;12.958;2023-04-26T13:10:34;97829.97;;;13.70;30.50
9746;BME280;4912;50.836;12.958;2023-04-26T13:13:06;97847.41;;;13.50;31.21
9746;BME280;4912;50.836;12.958;2023-04-26T13:15:36;97846.03;;;13.05;31.39
9746;BME280;4912;50.836;12.958;2023-04-26T13:18:07;97842.28;;;12.73;31.71
9746;BME280;4912;50.836;12.958;2023-04-26T13:20:38;97845.47;;;12.52;32.49
9746;BME280;4912;50.836;12.958;2023-04-26T13:23:11;97842.59;;;12.46;32.62
9746;BME280;4912;50.836;12.958;2023-04-26T13:25:41;97845.44;;;12.81;33.03
9746;BME280;4912;50.836;12.958;2023-04-26T13:28:12;97835.78;;;13.11;32.08
9746;BME280;4912;50.836;12.958;2023-04-26T13:30:42;97838.38;;;13.35;31.55
9746;BME280;4912;50.836;12.958;2023-04-26T13:33:13;97838.13;;;13.53;31.81
9746;BME280;4912;50.836;12.958;2023-04-26T13:35:46;97836.78;;;13.69;31.98
9746;BME280;4912;50.836;12.958;2023-04-26T13:38:19;97826.66;;;13.66;32.55
9746;BME280;4912;50.836;12.958;2023-04-26T13:40:49;97836.41;;;13.82;31.90
9746;BME280;4912;50.836;12.958;2023-04-26T13:43:20;97837.78;;;13.92;32.33
9746;BME280;4912;50.836;12.958;2023-04-26T13:45:51;97838.84;;;14.46;30.99
9746;BME280;4912;50.836;12.958;2023-04-26T13:48:21;97832.75;;;14.79;30.47